Time;durP1;ratioP1;P1;durP2;ratioP2;P2;SDS_P1;SDS_P2;PMS_P1;PMS_P2;Temp;Humidity;BMP_temperature;BMP_pressure;BME280_temperature;BME280_humidity;BME280_pressure;Samples;Min_cycle;Max_cycle;Signal;HPM_P1;HPM_P2
2022/04/13 00:00:42;;;;;;;1.30;1.10;;;18.40;41.50;;;;;;5060230;28;20356;-56
2022/04/13 00:03:08;;;;;;;1.20;1.00;;;18.40;41.50;;;;;;5062918;28;20257;-57
2022/04/13 00:05:34;;;;;;;1.30;1.20;;;18.40;41.50;;;;;;5058162;28;20225;-57
2022/04/13 00:08:06;;;;;;;1.10;1.00;;;18.40;41.50;;;;;;5064544;28;20242;-57
2022/04/13 00:10:33;;;;;;;1.77;1.67;;;18.50;41.60;;;;;;5062711;28;20480;-57
2022/04/13 00:12:59;;;;;;;1.10;1.00;;;18.40;41.50;;;;;;5062902;28;20822;-56
2022/04/13 00:15:24;;;;;;;1.13;1.03;;;18.40;41.60;;;;;;5061037;28;20449;-56
2022/04/13 00:17:50;;;;;;;1.00;0.93;;;18.40;41.50;;;;;;5063041;28;20328;-57
2022/04/13 00:20:16;;;;;;;1.20;1.10;;;18.40;41.60;;;;;;5063404;28;20229;-56
2022/04/13 00:22:41;;;;;;;1.03;0.93;;;18.40;41.60;;;;;;5058137;28;20683;-56
2022/04/13 00:25:07;;;;;;;1.20;1.10;;;18.40;41.60;;;;;;5063202;28;20229;-57
2022/04/13 00:27:33;;;;;;;1.10;1.00;;;18.40;41.60;;;;;;5060757;28;20222;-57
2022/04/13 00:29:58;;;;;;;1.30;1.20;;;18.40;41.60;;;;;;5058299;28;20230;-56
2022/04/13 00:32:25;;;;;;;0.97;0.90;;;18.40;41.60;;;;;;5061317;28;20283;-56
2022/04/13 00:34:51;;;;;;;1.30;1.20;;;18.40;41.60;;;;;;5065023;28;20221;-57
2022/04/13 00:37:16;;;;;;;1.40;1.30;;;18.40;41.60;;;;;;5060618;28;20417;-57
2022/04/13 00:39:43;;;;;;;3.20;1.00;;;18.40;41.60;;;;;;5061045;28;20335;-57
2022/04/13 00:42:09;;;;;;;1.17;1.07;;;18.40;41.60;;;;;;5061422;28;20230;-56
2022/04/13 00:44:35;;;;;;;1.87;1.10;;;18.40;41.60;;;;;;5059952;28;20894;-57
2022/04/13 00:47:05;;;;;;;1.53;1.20;;;18.40;41.60;;;;;;5066307;28;20221;-56
2022/04/13 00:49:31;;;;;;;1.30;1.17;;;18.40;41.70;;;;;;5067611;28;20458;-56
2022/04/13 00:52:03;;;;;;;1.10;1.00;;;18.40;41.60;;;;;;5065281;28;20418;-57
2022/04/13 00:54:30;;;;;;;1.30;1.20;;;18.40;41.60;;;;;;5061368;28;20791;-56
2022/04/13 00:56:57;;;;;;;1.30;1.20;;;18.40;41.60;;;;;;5064071;28;20516;-57
2022/04/13 00:59:24;;;;;;;1.30;1.20;;;18.40;41.70;;;;;;5059240;28;20434;-57
2022/04/13 01:01:53;;;;;;;1.10;1.00;;;18.40;41.60;;;;;;5064991;28;20435;-57
2022/04/13 01:04:20;;;;;;;1.20;1.10;;;18.40;41.60;;;;;;5060833;28;20479;-57
2022/04/13 01:06:45;;;;;;;1.20;1.10;;;18.40;41.60;;;;;;5058807;28;20878;-57
2022/04/13 01:09:13;;;;;;;1.30;1.10;;;18.40;41.60;;;;;;5065326;28;20451;-57
2022/04/13 01:11:39;;;;;;;1.27;1.17;;;18.40;41.60;;;;;;5065120;28;20245;-56
2022/04/13 01:14:05;;;;;;;1.33;1.23;;;18.40;41.60;;;;;;5057428;28;21097;-57
2022/04/13 01:16:32;;;;;;;0.97;0.90;;;18.40;41.70;;;;;;5059981;28;20520;-56
2022/04/13 01:18:57;;;;;;;1.30;1.20;;;18.40;41.70;;;;;;5061706;28;20222;-56
2022/04/13 01:21:48;;;;;;;1.13;1.00;;;18.40;41.60;;;;;;5059672;28;20850;-57
2022/04/13 01:24:15;;;;;;;1.20;1.10;;;18.40;41.60;;;;;;5067379;28;20236;-57
2022/04/13 01:26:41;;;;;;;1.27;1.17;;;18.40;41.70;;;;;;5065084;28;20463;-57
2022/04/13 01:29:07;;;;;;;1.20;1.10;;;18.40;41.70;;;;;;5062633;28;20440;-57
2022/04/13 01:31:33;;;;;;;1.07;0.90;;;18.40;41.60;;;;;;5060899;28;20230;-56
2022/04/13 01:33:59;;;;;;;1.70;1.20;;;18.40;41.70;;;;;;5062201;28;20426;-56
2022/04/13 01:36:26;;;;;;;1.40;1.30;;;18.40;41.70;;;;;;5064199;28;20217;-56
2022/04/13 01:38:51;;;;;;;1.17;1.07;;;18.40;41.70;;;;;;5057956;28;20438;-57
2022/04/13 01:41:17;;;;;;;1.23;1.10;;;18.40;41.70;;;;;;5062451;28;20468;-57
2022/04/13 01:43:43;;;;;;;1.73;1.10;;;18.40;41.70;;;;;;5055980;28;20222;-57
2022/04/13 01:46:09;;;;;;;2.30;1.00;;;18.40;41.70;;;;;;5058684;28;20634;-56
2022/04/13 01:48:34;;;;;;;1.30;1.20;;;18.40;41.70;;;;;;5065322;28;20230;-56
2022/04/13 01:51:00;;;;;;;1.07;0.97;;;18.40;41.70;;;;;;5060375;28;21004;-57
2022/04/13 01:53:26;;;;;;;1.20;1.10;;;18.40;41.70;;;;;;5061438;28;20279;-57
2022/04/13 01:55:54;;;;;;;1.30;1.20;;;18.40;41.80;;;;;;5061970;28;20329;-56
2022/04/13 01:58:20;;;;;;;1.10;1.00;;;18.40;41.70;;;;;;5055426;28;20466;-57
2022/04/13 02:00:45;;;;;;;0.97;0.93;;;18.40;41.80;;;;;;5058962;28;21273;-57
2022/04/13 02:03:11;;;;;;;1.47;1.00;;;18.40;41.80;;;;;;5060845;28;20490;-57
2022/04/13 02:05:37;;;;;;;1.97;1.00;;;18.40;41.80;;;;;;5058996;28;20670;-56
2022/04/13 02:08:02;;;;;;;0.90;0.90;;;18.40;41.80;;;;;;5060928;28;20241;-57
2022/04/13 02:10:28;;;;;;;1.10;1.00;;;18.40;41.80;;;;;;5061131;28;20222;-56
2022/04/13 02:12:54;;;;;;;1.17;1.07;;;18.40;41.80;;;;;;5060271;28;20703;-57
2022/04/13 02:15:20;;;;;;;1.20;1.10;;;18.40;41.80;;;;;;5057623;28;20230;-57
2022/04/13 02:17:45;;;;;;;0.90;0.90;;;18.40;41.80;;;;;;5060988;28;20225;-57
2022/04/13 02:20:11;;;;;;;1.17;1.07;;;18.40;41.80;;;;;;5057447;28;20308;-56
2022/04/13 02:22:37;;;;;;;1.17;1.07;;;18.40;41.80;;;;;;5061108;28;20211;-56
2022/04/13 02:25:04;;;;;;;1.20;1.10;;;18.40;41.80;;;;;;5060126;28;20230;-56
2022/04/13 02:27:30;;;;;;;1.50;1.37;;;18.40;41.80;;;;;;5064968;28;20298;-57
2022/04/13 02:29:56;;;;;;;1.20;1.10;;;18.40;41.90;;;;;;5055295;28;20482;-57
2022/04/13 02:32:22;;;;;;;1.73;1.10;;;18.40;41.80;;;;;;5061242;28;20952;-56
2022/04/13 02:34:48;;;;;;;1.10;1.00;;;18.40;41.90;;;;;;5062809;28;20241;-56
2022/04/13 02:37:15;;;;;;;1.23;1.13;;;18.40;41.80;;;;;;5057772;28;20246;-57
2022/04/13 02:39:41;;;;;;;0.90;0.90;;;18.40;41.90;;;;;;5063868;28;20505;-57
2022/04/13 02:42:07;;;;;;;1.50;1.17;;;18.40;41.90;;;;;;5055763;28;20497;-57
2022/04/13 02:44:32;;;;;;;1.00;0.90;;;18.40;41.90;;;;;;5058751;28;20222;-56
2022/04/13 02:46:59;;;;;;;1.40;1.23;;;18.40;41.90;;;;;;5063036;28;20222;-57
2022/04/13 02:49:25;;;;;;;1.17;1.07;;;18.40;41.90;;;;;;5063105;28;20226;-57
2022/04/13 02:51:51;;;;;;;1.20;1.10;;;18.40;41.90;;;;;;5054947;28;20424;-57
2022/04/13 02:54:16;;;;;;;1.23;1.13;;;18.40;41.90;;;;;;5060529;28;20536;-57
2022/04/13 02:56:42;;;;;;;1.43;1.33;;;18.40;42.00;;;;;;5062029;28;20237;-56
2022/04/13 02:59:07;;;;;;;1.10;1.00;;;18.40;42.00;;;;;;5056235;28;20221;-56
2022/04/13 03:01:33;;;;;;;1.20;1.10;;;18.40;42.00;;;;;;5062423;28;20228;-57
2022/04/13 03:03:59;;;;;;;1.10;1.00;;;18.40;42.00;;;;;;5062644;28;20301;-57
2022/04/13 03:06:24;;;;;;;0.90;0.90;;;18.40;41.90;;;;;;5059315;28;20246;-56
2022/04/13 03:08:50;;;;;;;1.10;1.00;;;18.40;42.00;;;;;;5055596;28;20229;-57
2022/04/13 03:11:16;;;;;;;1.20;0.90;;;18.40;42.00;;;;;;5059802;28;20672;-56
2022/04/13 03:13:42;;;;;;;1.10;1.00;;;18.40;42.00;;;;;;5057535;28;20268;-57
2022/04/13 03:16:08;;;;;;;1.20;1.10;;;18.40;42.00;;;;;;5059384;28;20850;-56
2022/04/13 03:18:33;;;;;;;1.27;1.10;;;18.40;42.00;;;;;;5062139;28;20245;-57
2022/04/13 03:20:59;;;;;;;1.50;1.20;;;18.40;42.00;;;;;;5052902;28;20658;-56
2022/04/13 03:23:25;;;;;;;1.10;1.00;;;18.40;42.00;;;;;;5061660;28;20682;-57
2022/04/13 03:25:51;;;;;;;1.20;1.07;;;18.40;42.00;;;;;;5062781;28;20237;-57
2022/04/13 03:28:17;;;;;;;1.30;1.20;;;18.40;42.00;;;;;;5058138;28;20312;-56
2022/04/13 03:30:43;;;;;;;1.20;1.10;;;18.40;42.00;;;;;;5060542;28;20531;-58
2022/04/13 03:33:08;;;;;;;1.00;0.90;;;18.40;42.00;;;;;;5060369;28;20728;-57
2022/04/13 03:35:34;;;;;;;1.10;1.00;;;18.40;42.00;;;;;;5059507;28;20679;-56
2022/04/13 03:37:59;;;;;;;1.13;1.00;;;18.40;42.00;;;;;;5058599;28;20610;-57
2022/04/13 03:40:26;;;;;;;0.90;0.90;;;18.40;42.00;;;;;;5061141;28;20250;-57
2022/04/13 03:42:51;;;;;;;1.20;1.10;;;18.40;42.00;;;;;;5055971;28;20230;-56
2022/04/13 03:45:17;;;;;;;1.20;1.10;;;18.40;42.00;;;;;;5057857;28;20827;-58
2022/04/13 03:47:42;;;;;;;1.30;1.20;;;18.40;42.00;;;;;;5063877;28;20563;-57
2022/04/13 03:50:10;;;;;;;1.17;1.07;;;18.40;42.00;;;;;;5056599;28;20268;-57
2022/04/13 03:52:36;;;;;;;1.10;1.00;;;18.40;42.00;;;;;;5054512;28;20569;-57
2022/04/13 03:55:04;;;;;;;1.13;1.03;;;18.40;42.00;;;;;;5062760;28;20457;-56
2022/04/13 03:57:29;;;;;;;1.47;1.10;;;18.40;42.00;;;;;;5054699;28;20414;-57
2022/04/13 03:59:56;;;;;;;1.13;1.03;;;18.40;41.90;;;;;;5061686;28;20413;-56
2022/04/13 04:02:22;;;;;;;1.07;0.97;;;18.40;42.10;;;;;;5062568;28;20226;-56
2022/04/13 04:04:47;;;;;;;1.47;1.37;;;18.40;42.00;;;;;;5070233;28;20425;-56
2022/04/13 04:07:13;;;;;;;1.20;1.10;;;18.40;42.00;;;;;;5063149;28;20642;-57
2022/04/13 04:09:38;;;;;;;0.80;0.80;;;18.40;42.00;;;;;;5064823;28;20228;-57
2022/04/13 04:12:04;;;;;;;1.00;0.90;;;18.40;42.00;;;;;;5060577;28;20616;-56
2022/04/13 04:14:30;;;;;;;1.10;1.00;;;18.40;42.00;;;;;;5059897;28;20261;-57
2022/04/13 04:16:55;;;;;;;1.20;1.10;;;18.40;42.00;;;;;;5062285;28;20464;-57
2022/04/13 04:19:21;;;;;;;1.10;1.00;;;18.40;42.00;;;;;;5063567;28;20649;-57
2022/04/13 04:21:47;;;;;;;0.90;0.90;;;18.40;42.00;;;;;;5060798;28;20568;-57
2022/04/13 04:24:12;;;;;;;1.13;1.03;;;18.40;42.10;;;;;;5063384;28;20446;-57
2022/04/13 04:26:38;;;;;;;1.00;0.80;;;18.40;42.10;;;;;;5059096;28;20313;-58
2022/04/13 04:29:04;;;;;;;1.10;1.00;;;18.40;42.10;;;;;;5064688;28;20236;-57
2022/04/13 04:34:13;;;;;;;1.20;1.10;;;18.40;42.00;;;;;;5056449;28;20326;-57
2022/04/13 04:36:39;;;;;;;1.13;1.03;;;18.40;42.10;;;;;;5059543;28;20985;-57
2022/04/13 04:39:05;;;;;;;1.30;1.20;;;18.40;42.10;;;;;;5064171;28;20654;-57
2022/04/13 04:41:30;;;;;;;1.07;0.97;;;18.40;42.00;;;;;;5062498;28;20250;-56
2022/04/13 04:43:56;;;;;;;1.10;1.00;;;18.40;42.00;;;;;;5062277;28;20232;-56
2022/04/13 04:46:21;;;;;;;1.00;0.90;;;18.40;41.90;;;;;;5063643;28;20214;-57
2022/04/13 04:48:47;;;;;;;1.57;1.23;;;18.50;41.90;;;;;;5050282;28;20222;-57
2022/04/13 04:51:13;;;;;;;1.20;1.10;;;18.50;41.80;;;;;;5056164;28;20250;-57
2022/04/13 04:53:38;;;;;;;1.20;1.10;;;18.50;41.70;;;;;;5064300;28;20682;-56
2022/04/13 04:56:04;;;;;;;1.20;1.10;;;18.60;41.70;;;;;;5063871;28;20248;-58
2022/04/13 04:58:30;;;;;;;1.30;1.20;;;18.60;41.70;;;;;;5063244;28;20229;-57
2022/04/13 05:00:56;;;;;;;1.20;1.10;;;18.60;41.70;;;;;;5064996;28;20448;-56
2022/04/13 05:03:22;;;;;;;1.30;1.20;;;18.60;41.70;;;;;;5058449;28;20305;-56
2022/04/13 05:05:47;;;;;;;1.20;1.10;;;18.60;41.70;;;;;;5060549;28;20966;-57
2022/04/13 05:08:16;;;;;;;1.20;1.10;;;18.60;41.70;;;;;;5061803;28;20242;-56
2022/04/13 05:10:42;;;;;;;1.10;1.00;;;18.60;41.70;;;;;;5062123;28;20221;-57
2022/04/13 05:13:08;;;;;;;1.10;1.00;;;18.60;41.70;;;;;;5066712;28;20589;-56
2022/04/13 05:15:34;;;;;;;1.00;1.00;;;18.60;41.60;;;;;;5060117;28;20484;-56
2022/04/13 05:17:59;;;;;;;1.13;1.03;;;18.60;41.70;;;;;;5043107;28;20253;-56
2022/04/13 05:20:25;;;;;;;1.53;1.43;;;18.60;41.70;;;;;;5060766;28;20226;-56
2022/04/13 05:22:50;;;;;;;1.30;1.20;;;18.60;41.60;;;;;;5058480;28;20226;-56
2022/04/13 05:25:17;;;;;;;1.30;1.20;;;18.60;41.60;;;;;;5061845;28;20230;-56
2022/04/13 05:27:43;;;;;;;0.90;0.90;;;18.60;41.60;;;;;;5054663;28;20797;-56
2022/04/13 05:30:10;;;;;;;1.17;1.07;;;18.60;41.60;;;;;;5062649;28;20487;-55
2022/04/13 05:32:58;;;;;;;1.20;1.10;;;18.60;41.60;;;;;;5058131;28;20456;-55
2022/04/13 05:35:28;;;;;;;1.03;1.00;;;18.60;41.60;;;;;;5058291;28;20854;-57
2022/04/13 05:37:54;;;;;;;1.10;1.00;;;18.60;41.60;;;;;;5060448;28;20426;-56
2022/04/13 05:40:22;;;;;;;1.33;1.23;;;18.60;41.60;;;;;;5061115;28;20933;-56
2022/04/13 05:42:48;;;;;;;1.20;1.10;;;18.60;41.70;;;;;;5058502;28;20852;-57
2022/04/13 05:45:15;;;;;;;1.20;1.10;;;18.60;41.60;;;;;;5064255;28;20482;-56
2022/04/13 05:47:44;;;;;;;1.40;1.30;;;18.60;41.70;;;;;;5057310;28;20213;-56
2022/04/13 05:50:11;;;;;;;1.33;1.23;;;18.60;41.60;;;;;;5056723;28;20513;-58
2022/04/13 05:52:37;;;;;;;1.20;1.10;;;18.60;41.70;;;;;;5061201;28;20442;-56
2022/04/13 05:55:03;;;;;;;1.20;1.10;;;18.60;41.60;;;;;;5061378;28;20950;-57
2022/04/13 05:57:29;;;;;;;1.30;1.20;;;18.60;41.60;;;;;;5054871;28;20441;-56
2022/04/13 05:59:55;;;;;;;1.10;1.00;;;18.60;41.60;;;;;;5055606;28;20430;-56
2022/04/13 06:02:20;;;;;;;1.10;1.00;;;18.60;41.70;;;;;;5062026;28;20608;-56
2022/04/13 06:04:46;;;;;;;1.20;1.10;;;18.60;41.60;;;;;;5056845;28;20254;-55
2022/04/13 06:07:12;;;;;;;1.20;1.10;;;18.70;41.70;;;;;;5059729;28;20241;-57
2022/04/13 06:09:37;;;;;;;1.30;1.20;;;18.60;41.70;;;;;;5060923;28;20471;-57
2022/04/13 06:12:03;;;;;;;1.20;1.10;;;18.60;41.70;;;;;;5054470;28;20225;-56
2022/04/13 06:14:29;;;;;;;1.17;1.07;;;18.60;41.70;;;;;;5064194;28;20702;-56
2022/04/13 06:16:54;;;;;;;1.13;1.03;;;18.60;41.70;;;;;;5064755;28;20417;-56
2022/04/13 06:19:20;;;;;;;1.03;1.00;;;18.60;41.70;;;;;;5059382;28;20626;-56
2022/04/13 06:21:46;;;;;;;1.10;1.00;;;18.60;41.70;;;;;;5061111;28;20626;-56
2022/04/13 06:24:11;;;;;;;1.50;1.07;;;18.60;41.70;;;;;;5059442;28;20234;-56
2022/04/13 06:26:37;;;;;;;1.20;1.10;;;18.60;41.70;;;;;;5057622;28;20225;-56
2022/04/13 06:29:03;;;;;;;1.20;1.10;;;18.60;41.80;;;;;;5058503;28;20226;-56
2022/04/13 06:31:28;;;;;;;1.30;1.20;;;18.60;41.70;;;;;;5061627;28;20234;-56
2022/04/13 06:33:54;;;;;;;1.37;1.10;;;18.60;41.70;;;;;;5065521;28;20210;-56
2022/04/13 06:36:20;;;;;;;1.20;1.10;;;18.60;41.80;;;;;;5062811;28;20271;-59
2022/04/13 06:38:45;;;;;;;1.23;1.13;;;18.60;41.70;;;;;;5062998;28;20283;-56
2022/04/13 06:41:11;;;;;;;1.10;1.00;;;18.60;41.70;;;;;;5057848;28;20261;-56
2022/04/13 06:43:38;;;;;;;1.63;1.03;;;18.60;41.70;;;;;;5055975;28;20288;-56
2022/04/13 06:46:04;;;;;;;1.70;1.30;;;18.60;41.80;;;;;;5058903;28;20229;-56
2022/04/13 06:48:30;;;;;;;1.10;1.00;;;18.60;41.70;;;;;;5055116;28;20554;-56
2022/04/13 06:50:55;;;;;;;2.10;1.17;;;18.60;41.70;;;;;;5062641;28;21090;-56
2022/04/13 06:53:21;;;;;;;1.20;1.10;;;18.70;41.80;;;;;;5062161;28;20304;-56
2022/04/13 06:55:50;;;;;;;1.27;1.07;;;18.60;41.70;;;;;;5058331;28;20266;-56
2022/04/13 06:58:17;;;;;;;1.37;1.27;;;18.70;41.80;;;;;;5060321;28;20324;-56
2022/04/13 07:00:43;;;;;;;1.20;1.03;;;18.70;41.80;;;;;;5057257;28;20543;-56
2022/04/13 07:03:08;;;;;;;1.63;1.30;;;18.70;41.80;;;;;;5061369;28;20510;-56
2022/04/13 07:05:34;;;;;;;1.10;1.00;;;18.70;41.80;;;;;;5058480;28;20299;-56
2022/04/13 07:08:02;;;;;;;1.17;1.07;;;18.70;41.80;;;;;;5056768;28;20245;-55
2022/04/13 07:10:29;;;;;;;1.10;1.00;;;18.70;41.80;;;;;;5059321;28;20278;-57
2022/04/13 07:12:55;;;;;;;1.17;1.07;;;18.70;41.80;;;;;;5056094;28;21004;-55
2022/04/13 07:15:20;;;;;;;1.20;1.10;;;18.70;41.80;;;;;;5062757;28;20954;-55
2022/04/13 07:17:47;;;;;;;1.20;1.10;;;18.70;41.80;;;;;;5059048;28;20490;-56
2022/04/13 07:20:13;;;;;;;1.40;1.30;;;18.70;41.80;;;;;;5058270;28;20229;-56
2022/04/13 07:22:46;;;;;;;1.40;1.30;;;18.70;41.80;;;;;;5060810;28;20428;-56
2022/04/13 07:25:12;;;;;;;2.20;1.17;;;18.70;41.80;;;;;;5059371;28;20429;-55
2022/04/13 07:27:37;;;;;;;2.50;1.10;;;18.70;41.80;;;;;;5056683;28;20422;-55
2022/04/13 07:30:03;;;;;;;1.20;1.10;;;18.70;41.80;;;;;;5061358;28;20433;-55
2022/04/13 07:32:29;;;;;;;1.20;1.10;;;18.70;41.90;;;;;;5048186;28;20221;-55
2022/04/13 07:34:54;;;;;;;1.73;1.30;;;18.70;41.90;;;;;;5057300;28;20473;-56
2022/04/13 07:37:20;;;;;;;1.10;1.00;;;18.70;41.90;;;;;;5058917;28;20225;-56
2022/04/13 07:39:45;;;;;;;1.10;1.00;;;18.70;41.90;;;;;;5066965;28;20221;-55
2022/04/13 07:42:11;;;;;;;1.20;1.10;;;18.70;41.90;;;;;;5058120;28;20333;-56
2022/04/13 07:44:36;;;;;;;1.27;1.17;;;18.70;41.90;;;;;;5065122;28;20222;-56
2022/04/13 07:47:02;;;;;;;1.10;1.00;;;18.60;41.80;;;;;;5058539;28;20219;-56
2022/04/13 07:49:28;;;;;;;1.20;1.10;;;18.70;41.90;;;;;;5069106;28;20226;-55
2022/04/13 07:51:54;;;;;;;1.10;1.00;;;18.60;41.80;;;;;;5065659;28;20214;-56
2022/04/13 07:54:20;;;;;;;1.17;1.07;;;18.70;42.00;;;;;;5063686;28;20222;-56
2022/04/13 07:56:45;;;;;;;1.30;1.20;;;18.60;41.90;;;;;;5058339;28;20865;-56
2022/04/13 07:59:11;;;;;;;1.10;0.97;;;18.70;41.90;;;;;;5066541;28;20600;-55
2022/04/13 08:01:36;;;;;;;1.20;1.10;;;18.60;41.90;;;;;;5061862;28;20662;-55
2022/04/13 08:04:02;;;;;;;1.20;1.10;;;18.70;42.00;;;;;;5059711;28;20754;-56
2022/04/13 08:06:29;;;;;;;1.30;1.20;;;18.70;41.90;;;;;;5063539;28;20719;-56
2022/04/13 08:08:55;;;;;;;1.40;1.30;;;18.70;41.90;;;;;;5071100;28;20225;-56
2022/04/13 08:11:20;;;;;;;1.50;1.20;;;18.70;41.90;;;;;;5061697;28;21443;-55
2022/04/13 08:13:46;;;;;;;1.30;1.17;;;18.70;41.90;;;;;;5060582;28;20700;-56
2022/04/13 08:16:11;;;;;;;1.80;1.40;;;18.70;41.90;;;;;;5065531;28;20243;-55
2022/04/13 08:18:37;;;;;;;2.30;1.40;;;18.70;42.00;;;;;;5057997;28;20570;-55
2022/04/13 08:21:04;;;;;;;2.00;1.20;;;18.70;42.00;;;;;;5070108;28;20230;-56
2022/04/13 08:23:29;;;;;;;1.20;1.10;;;18.70;42.10;;;;;;5059579;28;20215;-56
2022/04/13 08:25:55;;;;;;;2.63;1.70;;;18.70;42.10;;;;;;5061263;28;20508;-56
2022/04/13 08:28:20;;;;;;;1.30;1.20;;;18.70;42.10;;;;;;5061028;28;20589;-55
2022/04/13 08:30:46;;;;;;;2.13;1.30;;;18.60;42.00;;;;;;5062631;28;20247;-57
2022/04/13 08:33:11;;;;;;;1.53;1.30;;;18.60;42.10;;;;;;5062079;28;20246;-56
2022/04/13 08:35:37;;;;;;;1.60;1.20;;;18.60;42.00;;;;;;5061794;28;20241;-56
2022/04/13 08:38:02;;;;;;;1.77;1.27;;;18.60;42.10;;;;;;5063900;28;20306;-56
2022/04/13 08:40:33;;;;;;;1.40;1.30;;;18.60;42.10;;;;;;5056383;28;20226;-56
2022/04/13 08:43:09;;;;;;;2.00;1.33;;;18.60;42.10;;;;;;5064196;28;20222;-55
2022/04/13 08:45:52;;;;;;;2.23;1.40;;;18.60;42.10;;;;;;5062678;28;20862;-56
2022/04/13 08:48:22;;;;;;;1.60;1.17;;;18.60;42.10;;;;;;5063265;28;20736;-56
2022/04/13 08:50:56;;;;;;;1.40;1.30;;;18.60;42.10;;;;;;5064639;28;20459;-56
2022/04/13 08:53:27;;;;;;;2.80;1.40;;;18.60;42.20;;;;;;5063604;28;20505;-56
2022/04/13 08:55:54;;;;;;;1.50;1.40;;;18.60;43.00;;;;;;5055730;28;20430;-56
2022/04/13 08:58:43;;;;;;;1.23;1.13;;;18.60;42.20;;;;;;5058637;28;20422;-56
2022/04/13 09:01:20;;;;;;;1.40;1.30;;;18.60;42.10;;;;;;5061660;28;20478;-56
2022/04/13 09:03:50;;;;;;;2.13;1.37;;;18.60;42.20;;;;;;5057654;28;20456;-56
2022/04/13 09:06:20;;;;;;;1.67;1.30;;;18.60;43.00;;;;;;5063413;28;21262;-56
2022/04/13 09:08:50;;;;;;;1.40;1.30;;;18.60;42.20;;;;;;5063841;28;20450;-55
2022/04/13 09:11:22;;;;;;;1.30;1.20;;;18.60;42.30;;;;;;5060271;28;20426;-55
2022/04/13 09:13:51;;;;;;;1.20;1.10;;;18.60;42.20;;;;;;5040501;28;20972;-56
2022/04/13 09:16:17;;;;;;;1.27;1.17;;;18.60;42.20;;;;;;5063080;28;20467;-56
2022/04/13 09:18:44;;;;;;;1.50;1.40;;;18.60;42.20;;;;;;5057658;28;20482;-56
2022/04/13 09:21:17;;;;;;;1.30;1.10;;;18.60;42.20;;;;;;5064240;28;20439;-57
2022/04/13 09:23:43;;;;;;;1.53;1.40;;;18.60;42.30;;;;;;5067791;28;20436;-55
2022/04/13 09:26:09;;;;;;;1.37;1.27;;;18.60;42.30;;;;;;5057804;28;20441;-55
2022/04/13 09:28:36;;;;;;;1.20;1.10;;;18.60;42.30;;;;;;5063378;28;24876;-56
2022/04/13 09:31:03;;;;;;;1.23;1.13;;;18.60;42.30;;;;;;5059907;28;20438;-55
2022/04/13 09:33:29;;;;;;;1.60;1.50;;;18.60;42.30;;;;;;5060473;28;20441;-57
2022/04/13 09:35:54;;;;;;;1.37;1.27;;;18.60;42.30;;;;;;5063532;28;20454;-57
2022/04/13 09:38:21;;;;;;;1.27;1.17;;;18.60;42.40;;;;;;5059291;28;20694;-56
2022/04/13 09:40:49;;;;;;;1.57;1.40;;;18.60;42.40;;;;;;5059265;28;20245;-56
2022/04/13 09:43:19;;;;;;;1.40;1.27;;;18.60;42.30;;;;;;5066551;28;20457;-56
2022/04/13 09:45:50;;;;;;;1.20;1.10;;;18.60;42.40;;;;;;5059950;28;20456;-56
2022/04/13 09:48:18;;;;;;;1.30;1.20;;;18.60;42.40;;;;;;5063161;28;20444;-56
2022/04/13 09:50:46;;;;;;;1.30;1.20;;;18.60;42.40;;;;;;5064548;28;20416;-56
2022/04/13 09:53:14;;;;;;;2.53;1.20;;;18.60;42.40;;;;;;5043319;28;20425;-56
2022/04/13 09:55:41;;;;;;;1.37;1.10;;;18.60;42.50;;;;;;5061231;28;20433;-56
2022/04/13 09:58:14;;;;;;;1.23;1.13;;;18.60;43.20;;;;;;5063059;28;20433;-56
2022/04/13 10:00:41;;;;;;;3.10;1.37;;;18.60;42.50;;;;;;5061190;28;20448;-56
2022/04/13 10:03:21;;;;;;;1.67;1.00;;;18.60;42.50;;;;;;5061026;28;20548;-56
2022/04/13 10:05:52;;;;;;;1.47;1.37;;;18.60;42.50;;;;;;5058873;28;20430;-56
2022/04/13 10:08:22;;;;;;;1.30;1.20;;;18.60;42.50;;;;;;5057838;28;20464;-56
2022/04/13 10:10:52;;;;;;;1.37;1.23;;;18.50;42.40;;;;;;5060660;28;20467;-56
2022/04/13 10:13:34;;;;;;;1.40;1.30;;;18.50;42.40;;;;;;5063861;28;20427;-56
2022/04/13 10:16:03;;;;;;;1.77;1.20;;;18.60;42.60;;;;;;5052417;28;20601;-56
2022/04/13 10:18:31;;;;;;;3.03;1.17;;;18.50;42.50;;;;;;5060538;28;20819;-55
2022/04/13 10:20:57;;;;;;;1.20;1.10;;;18.50;42.50;;;;;;5063289;28;20527;-56
2022/04/13 10:23:22;;;;;;;1.20;1.10;;;18.50;42.50;;;;;;5066597;28;20456;-56
2022/04/13 10:25:48;;;;;;;1.40;1.30;;;18.50;43.30;;;;;;5060090;28;20307;-56
2022/04/13 10:28:21;;;;;;;1.50;1.40;;;18.50;42.50;;;;;;5059933;28;20353;-56
2022/04/13 10:30:48;;;;;;;1.30;1.20;;;18.50;42.50;;;;;;5056265;28;20241;-56
2022/04/13 10:33:14;;;;;;;3.13;1.40;;;18.50;42.60;;;;;;5060473;28;20455;-56
2022/04/13 10:35:44;;;;;;;1.30;1.20;;;18.50;42.60;;;;;;5060680;28;20461;-55
2022/04/13 10:38:12;;;;;;;2.63;1.13;;;18.50;42.60;;;;;;5055324;28;20462;-56
2022/04/13 10:40:40;;;;;;;1.47;1.23;;;18.50;42.60;;;;;;5056624;28;20533;-56
2022/04/13 10:43:08;;;;;;;1.40;1.30;;;18.50;42.60;;;;;;5047835;28;20926;-55
2022/04/13 10:45:36;;;;;;;1.30;1.20;;;18.50;42.70;;;;;;5059351;28;20437;-55
2022/04/13 10:48:05;;;;;;;1.40;1.30;;;18.50;42.70;;;;;;5055048;28;20423;-56
2022/04/13 10:50:40;;;;;;;1.47;1.37;;;18.50;42.70;;;;;;5062888;28;20942;-56
2022/04/13 10:53:25;;;;;;;1.40;1.30;;;18.50;42.70;;;;;;5058592;28;20417;-55
2022/04/13 10:56:19;;;;;;;1.63;1.30;;;18.50;42.70;;;;;;5056470;28;20462;-56
2022/04/13 10:58:59;;;;;;;1.10;1.00;;;18.50;42.70;;;;;;5058299;28;20422;-58
2022/04/13 11:01:31;;;;;;;1.40;1.30;;;18.50;43.60;;;;;;5059190;28;20519;-56
2022/04/13 11:03:57;;;;;;;1.33;1.23;;;18.50;42.80;;;;;;5058617;28;21074;-56
2022/04/13 11:06:24;;;;;;;3.00;1.20;;;18.50;42.80;;;;;;5061267;28;20478;-56
2022/04/13 11:09:02;;;;;;;1.40;1.30;;;18.50;42.80;;;;;;5057856;28;20516;-55
2022/04/13 11:11:29;;;;;;;1.70;1.43;;;18.50;42.80;;;;;;5060787;28;20455;-55
2022/04/13 11:13:55;;;;;;;1.40;1.30;;;18.50;42.80;;;;;;5064083;28;20506;-56
2022/04/13 11:16:22;;;;;;;1.60;1.40;;;18.50;42.80;;;;;;5062856;28;20449;-56
2022/04/13 11:19:05;;;;;;;1.57;1.47;;;18.50;42.80;;;;;;5062482;28;20228;-55
2022/04/13 11:22:01;;;;;;;1.43;1.33;;;18.50;43.60;;;;;;5067629;28;20489;-56
2022/04/13 11:24:34;;;;;;;1.30;1.20;;;18.50;42.90;;;;;;5041500;28;20434;-55
2022/04/13 11:27:00;;;;;;;2.13;1.60;;;18.50;42.80;;;;;;5064788;28;20429;-56
2022/04/13 11:29:56;;;;;;;1.40;1.30;;;18.50;43.00;;;;;;5063269;28;20438;-56
2022/04/13 11:32:31;;;;;;;2.40;1.40;;;18.50;43.00;;;;;;5060212;28;20444;-56
2022/04/13 11:34:57;;;;;;;1.50;1.40;;;18.50;43.00;;;;;;5046103;28;20943;-56
2022/04/13 11:37:35;;;;;;;1.60;1.50;;;18.50;43.00;;;;;;5063653;28;20927;-56
2022/04/13 11:40:05;;;;;;;1.23;1.13;;;18.50;43.00;;;;;;5063254;28;20565;-56
2022/04/13 11:42:38;;;;;;;4.30;1.37;;;18.50;43.10;;;;;;5063095;28;20456;-57
2022/04/13 11:45:14;;;;;;;1.30;1.20;;;18.50;43.00;;;;;;5064280;28;20489;-56
2022/04/13 11:47:49;;;;;;;1.10;1.00;;;18.50;43.00;;;;;;5042833;28;20516;-56
2022/04/13 11:50:14;;;;;;;1.30;1.20;;;18.50;43.10;;;;;;5060771;28;20425;-56
2022/04/13 11:52:48;;;;;;;1.30;1.20;;;18.50;43.10;;;;;;5063458;28;20502;-56
2022/04/13 11:55:19;;;;;;;1.67;1.20;;;18.50;43.10;;;;;;5061259;28;20242;-56
2022/04/13 11:58:04;;;;;;;1.40;1.30;;;18.50;43.10;;;;;;5062846;28;21005;-56
2022/04/13 12:00:54;;;;;;;1.50;1.40;;;18.50;43.20;;;;;;5045887;28;20801;-56
2022/04/13 12:03:32;;;;;;;1.30;1.20;;;18.50;43.20;;;;;;5065010;28;20440;-57
2022/04/13 12:06:26;;;;;;;1.33;1.23;;;18.50;43.20;;;;;;5059467;28;20441;-58
2022/04/13 12:08:56;;;;;;;2.00;1.50;;;18.40;43.20;;;;;;5041267;28;20430;-58
2022/04/13 12:11:41;;;;;;;1.30;1.20;;;18.50;43.30;;;;;;5062160;28;20461;-57
2022/04/13 12:14:09;;;;;;;1.43;1.33;;;18.50;43.10;;;;;;5063571;28;20961;-56
2022/04/13 12:16:39;;;;;;;1.60;1.50;;;18.50;43.20;;;;;;5066335;28;20464;-56
2022/04/13 12:19:07;;;;;;;1.40;1.30;;;18.50;43.20;;;;;;5060803;28;20547;-56
2022/04/13 12:21:36;;;;;;;1.60;1.50;;;18.50;43.20;;;;;;5058718;28;20433;-58
2022/04/13 12:24:11;;;;;;;1.73;1.63;;;18.50;43.20;;;;;;5057297;28;20467;-56
2022/04/13 12:26:41;;;;;;;1.50;1.40;;;18.50;43.20;;;;;;5063034;28;20961;-56
2022/04/13 12:29:14;;;;;;;1.30;1.20;;;18.50;43.30;;;;;;5060853;28;20958;-56
2022/04/13 12:31:44;;;;;;;1.80;1.43;;;18.50;43.20;;;;;;5061127;28;20760;-55
2022/04/13 12:34:14;;;;;;;1.33;1.23;;;18.50;43.20;;;;;;5062254;28;20789;-58
2022/04/13 12:36:40;;;;;;;1.40;1.30;;;18.50;43.30;;;;;;5064963;28;20430;-55
2022/04/13 12:39:09;;;;;;;1.50;1.40;;;18.50;43.30;;;;;;5057214;28;20504;-56
2022/04/13 12:41:35;;;;;;;1.40;1.30;;;18.50;43.30;;;;;;5061951;28;20654;-55
2022/04/13 12:44:01;;;;;;;1.37;1.27;;;18.50;43.30;;;;;;5063656;28;20436;-56
2022/04/13 12:46:28;;;;;;;1.47;1.37;;;18.50;43.30;;;;;;5058780;28;20225;-56
2022/04/13 12:49:00;;;;;;;1.63;1.53;;;18.50;43.30;;;;;;5062985;28;20245;-56
2022/04/13 12:51:35;;;;;;;1.37;1.27;;;18.50;43.40;;;;;;5055848;28;20456;-56
2022/04/13 12:54:06;;;;;;;1.77;1.53;;;18.50;43.40;;;;;;5055457;28;20458;-57